Aviation Digital Data Service (ADDS)

Output produced by METARs form (1751 UTC 23 April 2019)
found at http://www.aviationweather.gov/metar/data/
 
TAF UDYZ 231700Z 2318/2418 04006KT 9999 FEW040 SCT100 
     TEMPO 2318/2403 VRB24KT SCT030CB